Time;durP1;ratioP1;P1;durP2;ratioP2;P2;SDS_P1;SDS_P2;PMS_P1;PMS_P2;Temp;Humidity;BMP_temperature;BMP_pressure;BME280_temperature;BME280_humidity;BME280_pressure;Samples;Min_cycle;Max_cycle;Signal;HPM_P1;HPM_P2
2021/04/03 07:06:18;;;;;;;7.10;2.30;;;;;;;;;;10514310;28;20116;-85
2021/04/03 07:11:50;;;;;;;6.97;2.70;;;;;;;;;;10492402;28;20154;-85
2021/04/03 07:16:51;;;;;;;7.60;2.92;;;;;;;;;;10491819;28;20036;-84
2021/04/03 07:21:59;;;;;;;9.32;2.80;;;;;;;;;;10496478;28;20123;-84
2021/04/03 07:27:02;;;;;;;7.20;2.65;;;;;;;;;;10495422;28;20048;-85
2021/04/03 07:32:09;;;;;;;9.20;3.22;;;;;;;;;;10507081;28;20040;-85
2021/04/03 07:37:10;;;;;;;7.78;3.53;;;;;;;;;;10496046;28;20037;-83
2021/04/03 07:42:31;;;;;;;9.65;3.70;;;;;;;;;;10492340;28;20137;-87
2021/04/03 07:47:53;;;;;;;8.98;4.10;;;;;;;;;;10508876;28;20044;-85
2021/04/03 07:53:25;;;;;;;8.63;3.58;;;;;;;;;;10531816;28;20059;-84
2021/04/03 07:58:30;;;;;;;8.15;3.80;;;;;;;;;;10534490;28;20043;-83
2021/04/03 08:03:37;;;;;;;9.07;3.83;;;;;;;;;;10506989;28;20093;-87
2021/04/03 08:09:10;;;;;;;8.73;4.30;;;;;;;;;;10500287;28;20075;-86
2021/04/03 08:14:38;;;;;;;8.75;3.90;;;;;;;;;;10507472;28;20021;-86
2021/04/03 08:20:03;;;;;;;13.18;4.63;;;;;;;;;;10494141;28;20033;-85
2021/04/03 08:25:07;;;;;;;12.57;5.60;;;;;;;;;;10512627;28;20255;-85
2021/04/03 08:30:25;;;;;;;11.60;4.80;;;;;;;;;;10494398;28;20131;-87
2021/04/03 08:36:00;;;;;;;9.88;5.32;;;;;;;;;;10495773;28;20094;-86
2021/04/03 08:41:47;;;;;;;10.20;5.05;;;;;;;;;;10474512;28;20033;-86
2021/04/03 08:53:10;;;;;;;10.82;5.20;;;;;;;;;;10506281;28;20036;-87
2021/04/03 08:58:20;;;;;;;10.25;4.47;;;;;;;;;;10508893;28;20568;-86
2021/04/03 09:03:33;;;;;;;9.45;4.70;;;;;;;;;;10492627;28;20045;-86
2021/04/03 09:08:35;;;;;;;10.57;4.60;;;;;;;;;;10510407;28;20038;-81
2021/04/03 09:13:40;;;;;;;9.77;3.95;;;;;;;;;;10500257;28;20036;-87
2021/04/03 09:24:02;;;;;;;9.73;4.38;;;;;;;;;;10511420;28;20028;-85
2021/04/03 09:29:06;;;;;;;10.82;4.57;;;;;;;;;;10494371;28;20041;-85
2021/04/03 09:34:33;;;;;;;8.60;4.20;;;;;;;;;;10505297;28;20040;-86
2021/04/03 09:39:41;;;;;;;9.25;4.60;;;;;;;;;;10494958;28;20032;-85
2021/04/03 09:45:03;;;;;;;9.43;4.43;;;;;;;;;;10497851;28;20142;-85
2021/04/03 09:50:06;;;;;;;11.85;4.88;;;;;;;;;;10520891;28;20072;-85
2021/04/03 09:55:07;;;;;;;10.68;4.28;;;;;;;;;;10507388;28;20384;-83
2021/04/03 10:00:09;;;;;;;8.88;4.38;;;;;;;;;;10511533;28;20040;-86
2021/04/03 10:05:34;;;;;;;10.43;5.18;;;;;;;;;;10509176;28;20048;-87
2021/04/03 10:10:56;;;;;;;11.77;5.22;;;;;;;;;;10409825;28;20515;-87
2021/04/03 10:15:58;;;;;;;10.00;4.85;;;;;;;;;;10487923;28;20393;-86
2021/04/03 10:21:26;;;;;;;12.55;5.38;;;;;;;;;;10507872;28;20158;-85
2021/04/03 10:26:28;;;;;;;11.65;5.03;;;;;;;;;;10490981;28;20041;-86
2021/04/03 10:37:37;;;;;;;11.43;5.03;;;;;;;;;;10531449;28;20032;-84
2021/04/03 10:49:02;;;;;;;10.73;4.60;;;;;;;;;;10545316;28;20028;-84
2021/04/03 10:54:21;;;;;;;8.10;5.05;;;;;;;;;;10540540;28;20047;-83
2021/04/03 10:59:52;;;;;;;11.25;4.82;;;;;;;;;;10494364;28;20029;-84
2021/04/03 11:10:45;;;;;;;10.85;4.93;;;;;;;;;;10532954;28;20016;-86
2021/04/03 11:15:47;;;;;;;8.35;4.82;;;;;;;;;;10532529;28;20046;-85
2021/04/03 11:21:19;;;;;;;8.38;4.40;;;;;;;;;;10488205;28;20028;-86
2021/04/03 11:26:20;;;;;;;7.90;4.30;;;;;;;;;;10516163;28;20123;-85
2021/04/03 11:31:47;;;;;;;9.80;4.30;;;;;;;;;;10513222;28;20028;-85
2021/04/03 11:37:42;;;;;;;8.77;4.40;;;;;;;;;;10362064;28;20035;-86
2021/04/03 11:42:53;;;;;;;8.75;4.00;;;;;;;;;;10351407;28;20030;-86
2021/04/03 11:48:27;;;;;;;7.88;4.20;;;;;;;;;;10458082;28;20033;-85
2021/04/03 11:59:13;;;;;;;10.85;4.47;;;;;;;;;;10531203;28;20070;-84
2021/04/03 12:04:33;;;;;;;10.48;5.05;;;;;;;;;;10501755;28;20047;-86
2021/04/03 12:09:34;;;;;;;7.95;4.70;;;;;;;;;;10514839;28;20076;-85
2021/04/03 12:14:57;;;;;;;7.43;4.15;;;;;;;;;;10529541;28;20055;-87
2021/04/03 12:20:01;;;;;;;10.43;4.93;;;;;;;;;;10466117;28;20033;-86
2021/04/03 12:25:23;;;;;;;12.32;4.80;;;;;;;;;;10493012;28;20040;-86
2021/04/03 12:30:53;;;;;;;11.07;4.60;;;;;;;;;;10506318;28;20131;-85
2021/04/03 12:36:38;;;;;;;11.35;5.78;;;;;;;;;;10439549;28;20115;-87
2021/04/03 12:41:59;;;;;;;8.07;3.08;;;;;;;;;;10305066;28;20027;-85
2021/04/03 12:47:37;;;;;;;7.78;3.55;;;;;;;;;;10290936;28;20126;-87
2021/04/03 12:58:03;;;;;;;6.38;3.30;;;;;;;;;;10425969;28;20041;-84
2021/04/03 13:03:19;;;;;;;7.70;3.70;;;;;;;;;;10519157;28;20123;-84
2021/04/03 13:08:21;;;;;;;7.22;3.30;;;;;;;;;;10545153;28;20048;-84
2021/04/03 13:13:23;;;;;;;6.90;3.20;;;;;;;;;;10524086;28;20079;-85
2021/04/03 13:19:04;;;;;;;6.35;2.90;;;;;;;;;;10343798;28;20037;-86
2021/04/03 13:24:43;;;;;;;4.50;2.70;;;;;;;;;;10332463;28;20489;-86
2021/04/03 13:30:06;;;;;;;;;;;;;;;;;;10317351;28;20041;-85
2021/04/03 13:41:26;;;;;;;6.82;3.25;;;;;;;;;;10193579;29;20016;-86
2021/04/03 13:46:42;;;;;;;5.82;2.42;;;;;;;;;;10354334;28;20029;-84
2021/04/03 13:51:43;;;;;;;7.07;3.42;;;;;;;;;;10514775;28;20032;-86
2021/04/03 13:56:44;;;;;;;5.68;2.70;;;;;;;;;;10493464;28;20033;-86
2021/04/03 14:01:45;;;;;;;8.77;3.28;;;;;;;;;;10490726;28;20507;-86
2021/04/03 14:06:46;;;;;;;7.88;3.45;;;;;;;;;;10489897;28;20081;-86
2021/04/03 14:11:47;;;;;;;7.20;2.78;;;;;;;;;;10488793;28;20156;-86
2021/04/03 14:16:48;;;;;;;6.10;3.05;;;;;;;;;;10486058;28;20055;-86
2021/04/03 14:21:49;;;;;;;6.53;2.90;;;;;;;;;;10495303;28;20044;-86
2021/04/03 14:26:50;;;;;;;10.13;3.95;;;;;;;;;;10518910;28;20048;-86
2021/04/03 14:31:51;;;;;;;5.25;2.45;;;;;;;;;;10489321;28;20028;-86
2021/04/03 14:36:52;;;;;;;5.60;2.85;;;;;;;;;;10499081;28;20110;-86
2021/04/03 14:41:53;;;;;;;4.38;2.10;;;;;;;;;;10486353;28;20075;-85
2021/04/03 14:46:54;;;;;;;4.57;2.25;;;;;;;;;;10484629;28;20036;-85
2021/04/03 14:51:56;;;;;;;6.53;3.28;;;;;;;;;;10500295;28;20032;-85
2021/04/03 14:56:57;;;;;;;5.88;2.88;;;;;;;;;;10492888;28;20037;-85
2021/04/03 15:01:58;;;;;;;4.60;2.58;;;;;;;;;;10485871;28;20036;-85
2021/04/03 15:06:59;;;;;;;13.77;10.65;;;;;;;;;;10485653;28;20140;-85
2021/04/03 15:12:00;;;;;;;5.43;2.83;;;;;;;;;;10487339;28;20468;-85
2021/04/03 15:17:01;;;;;;;4.85;2.50;;;;;;;;;;10489775;28;20043;-85
2021/04/03 15:22:02;;;;;;;6.95;3.55;;;;;;;;;;10522686;28;20045;-86
2021/04/03 15:27:03;;;;;;;4.97;2.92;;;;;;;;;;10490517;28;20441;-85
2021/04/03 15:32:04;;;;;;;4.70;2.28;;;;;;;;;;10491286;28;20063;-86
2021/04/03 15:37:06;;;;;;;6.28;2.97;;;;;;;;;;10490161;28;20041;-85
2021/04/03 15:42:07;;;;;;;5.22;2.55;;;;;;;;;;10490164;28;20487;-86
2021/04/03 15:47:08;;;;;;;5.40;2.78;;;;;;;;;;10489826;28;20037;-86
2021/04/03 15:52:09;;;;;;;7.80;2.70;;;;;;;;;;10489637;28;20177;-85
2021/04/03 15:57:14;;;;;;;5.80;3.03;;;;;;;;;;10491647;28;20461;-85
2021/04/03 16:02:15;;;;;;;4.70;2.45;;;;;;;;;;10491751;28;20135;-85
2021/04/03 16:07:16;;;;;;;5.93;2.58;;;;;;;;;;10494444;28;20488;-86
2021/04/03 16:12:16;;;;;;;5.65;2.58;;;;;;;;;;10492146;28;20040;-85
2021/04/03 16:17:17;;;;;;;7.03;3.45;;;;;;;;;;10490707;28;20044;-85
2021/04/03 16:22:18;;;;;;;6.25;2.80;;;;;;;;;;10525440;28;20131;-85
2021/04/03 16:27:19;;;;;;;6.32;2.83;;;;;;;;;;10515305;28;20090;-84
2021/04/03 16:32:20;;;;;;;6.35;3.22;;;;;;;;;;10487682;28;20087;-85
2021/04/03 16:37:21;;;;;;;8.50;2.83;;;;;;;;;;10512942;28;20025;-85
2021/04/03 16:42:22;;;;;;;7.85;2.78;;;;;;;;;;10513738;28;20384;-85
2021/04/03 16:47:23;;;;;;;6.55;2.75;;;;;;;;;;10513867;28;20037;-85
2021/04/03 16:52:25;;;;;;;7.00;2.80;;;;;;;;;;10493735;28;20051;-86
2021/04/03 16:57:26;;;;;;;6.95;3.00;;;;;;;;;;10492530;28;20063;-85
2021/04/03 17:02:27;;;;;;;8.80;3.25;;;;;;;;;;10492105;28;20507;-85
2021/04/03 17:07:28;;;;;;;9.20;3.50;;;;;;;;;;10488261;28;20571;-86
2021/04/03 17:12:29;;;;;;;6.47;2.92;;;;;;;;;;10488678;28;20036;-86
2021/04/03 17:17:30;;;;;;;10.35;3.67;;;;;;;;;;10506907;28;20510;-85
2021/04/03 17:22:31;;;;;;;8.50;3.13;;;;;;;;;;10488063;28;20127;-85
2021/04/03 17:27:31;;;;;;;7.45;3.25;;;;;;;;;;10507170;28;20048;-85
2021/04/03 17:32:32;;;;;;;7.22;3.20;;;;;;;;;;10488282;28;20190;-88
2021/04/03 17:37:33;;;;;;;9.55;3.85;;;;;;;;;;10482262;28;20036;-87
2021/04/03 17:42:34;;;;;;;6.88;2.78;;;;;;;;;;10484931;28;20028;-88
2021/04/03 17:47:35;;;;;;;8.48;3.97;;;;;;;;;;10482094;28;20056;-87
2021/04/03 17:52:36;;;;;;;9.82;3.78;;;;;;;;;;10485629;28;20029;-87
2021/04/03 17:57:37;;;;;;;9.50;3.42;;;;;;;;;;10481108;28;20040;-87
2021/04/03 18:02:38;;;;;;;6.97;3.28;;;;;;;;;;10481793;28;20476;-86
2021/04/03 18:07:39;;;;;;;7.07;3.50;;;;;;;;;;10482505;28;20451;-87
2021/04/03 18:12:40;;;;;;;7.90;3.65;;;;;;;;;;10481737;28;20086;-86
2021/04/03 18:17:41;;;;;;;7.63;3.30;;;;;;;;;;10482116;28;20028;-87
2021/04/03 18:22:44;;;;;;;7.97;3.15;;;;;;;;;;10482838;28;20040;-87
2021/04/03 18:27:45;;;;;;;7.70;3.28;;;;;;;;;;10483317;28;20060;-87
2021/04/03 18:32:49;;;;;;;9.52;3.60;;;;;;;;;;10482598;28;20036;-86
2021/04/03 18:37:50;;;;;;;11.07;4.13;;;;;;;;;;10482673;28;20086;-88
2021/04/03 18:42:52;;;;;;;6.00;2.42;;;;;;;;;;10482064;28;20369;-88
2021/04/03 18:47:53;;;;;;;5.97;2.65;;;;;;;;;;10481076;28;20514;-89
2021/04/03 18:52:54;;;;;;;6.43;3.00;;;;;;;;;;10483515;28;20041;-86
2021/04/03 18:57:55;;;;;;;9.07;4.00;;;;;;;;;;10490605;28;20484;-87
2021/04/03 19:02:56;;;;;;;5.50;2.55;;;;;;;;;;10491557;28;20063;-87
2021/04/03 19:07:57;;;;;;;4.60;2.22;;;;;;;;;;10466741;28;20091;-86
2021/04/03 19:12:58;;;;;;;8.73;3.97;;;;;;;;;;10450192;28;20037;-87
2021/04/03 19:17:59;;;;;;;8.45;3.53;;;;;;;;;;10449817;28;20063;-86
2021/04/03 19:23:00;;;;;;;9.65;3.13;;;;;;;;;;10449464;28;20492;-87
2021/04/03 19:28:01;;;;;;;5.97;2.78;;;;;;;;;;10450633;28;20041;-87
2021/04/03 19:33:02;;;;;;;9.18;3.65;;;;;;;;;;10481418;28;20044;-85
2021/04/03 19:38:03;;;;;;;8.65;2.97;;;;;;;;;;10493159;28;20029;-86
2021/04/03 19:43:04;;;;;;;95.25;55.63;;;;;;;;;;10478336;28;20040;-87
2021/04/03 19:48:05;;;;;;;11.13;3.90;;;;;;;;;;10455253;28;20130;-86
2021/04/03 19:53:06;;;;;;;35.78;25.63;;;;;;;;;;10453740;28;20037;-88
2021/04/03 19:58:07;;;;;;;10.98;4.15;;;;;;;;;;10450537;28;20072;-88
2021/04/03 20:03:08;;;;;;;11.45;3.55;;;;;;;;;;10446910;28;20489;-88
2021/04/03 20:08:09;;;;;;;6.93;2.90;;;;;;;;;;10456093;28;20045;-87
2021/04/03 20:13:10;;;;;;;9.27;3.88;;;;;;;;;;10483330;28;20025;-88
2021/04/03 20:18:11;;;;;;;9.00;3.35;;;;;;;;;;10508365;28;20085;-87
2021/04/03 20:23:13;;;;;;;12.70;4.13;;;;;;;;;;10487564;28;20033;-87
2021/04/03 20:28:14;;;;;;;8.38;2.90;;;;;;;;;;10446570;28;20432;-88
2021/04/03 20:33:15;;;;;;;9.93;3.95;;;;;;;;;;10447097;28;20051;-87
2021/04/03 20:38:16;;;;;;;9.43;3.58;;;;;;;;;;10446510;28;20033;-87
2021/04/03 20:43:17;;;;;;;8.65;3.33;;;;;;;;;;10446724;28;20097;-87
2021/04/03 20:48:18;;;;;;;9.02;2.88;;;;;;;;;;10445920;28;20384;-88
2021/04/03 20:53:20;;;;;;;7.07;3.03;;;;;;;;;;10444601;28;20101;-88
2021/04/03 20:58:21;;;;;;;8.23;3.17;;;;;;;;;;10444553;28;20025;-88
2021/04/03 21:03:22;;;;;;;6.65;2.92;;;;;;;;;;10446617;28;20128;-87
2021/04/03 21:08:23;;;;;;;6.82;2.85;;;;;;;;;;10446297;28;20052;-86
2021/04/03 21:13:24;;;;;;;6.13;2.83;;;;;;;;;;10445153;28;20029;-87
2021/04/03 21:18:25;;;;;;;7.15;3.05;;;;;;;;;;10443149;28;20037;-87
2021/04/03 21:23:26;;;;;;;5.80;2.50;;;;;;;;;;10443586;28;20504;-89
2021/04/03 21:28:27;;;;;;;6.60;2.90;;;;;;;;;;10447123;28;20029;-86
2021/04/03 21:33:28;;;;;;;5.20;2.70;;;;;;;;;;10446451;28;20044;-86
2021/04/03 21:38:29;;;;;;;9.07;4.43;;;;;;;;;;10444619;28;20402;-85
2021/04/03 21:43:30;;;;;;;5.07;2.80;;;;;;;;;;10444882;28;20447;-85
2021/04/03 21:48:31;;;;;;;8.38;3.25;;;;;;;;;;10462527;28;20063;-85
2021/04/03 21:53:32;;;;;;;6.55;2.50;;;;;;;;;;10446925;28;20036;-86
2021/04/03 21:58:33;;;;;;;7.95;3.35;;;;;;;;;;10445574;28;20481;-85
2021/04/03 22:03:35;;;;;;;8.07;3.38;;;;;;;;;;10444324;28;20047;-85
2021/04/03 22:08:36;;;;;;;8.85;2.80;;;;;;;;;;10493866;28;20094;-86
2021/04/03 22:13:37;;;;;;;7.15;2.97;;;;;;;;;;10487212;28;20083;-86
2021/04/03 22:18:38;;;;;;;6.95;2.88;;;;;;;;;;10485210;28;20052;-86
2021/04/03 22:23:39;;;;;;;6.97;2.60;;;;;;;;;;10487418;28;20036;-86
2021/04/03 22:28:40;;;;;;;6.43;2.58;;;;;;;;;;10531240;28;20025;-86
2021/04/03 22:33:41;;;;;;;8.63;3.72;;;;;;;;;;10541635;28;20063;-86
2021/04/03 22:38:42;;;;;;;6.18;2.60;;;;;;;;;;10505861;28;20063;-86
2021/04/03 22:43:44;;;;;;;6.78;2.83;;;;;;;;;;10499478;28;20028;-87
2021/04/03 22:48:51;;;;;;;5.95;2.90;;;;;;;;;;10515125;28;20040;-87
2021/04/03 22:53:52;;;;;;;7.38;2.63;;;;;;;;;;10519192;28;20083;-88
2021/04/03 22:58:53;;;;;;;7.75;2.65;;;;;;;;;;10536285;28;20024;-87
2021/04/03 23:03:54;;;;;;;5.70;2.47;;;;;;;;;;10508660;28;20127;-87
2021/04/03 23:08:55;;;;;;;5.00;2.70;;;;;;;;;;10494024;28;20094;-88
2021/04/03 23:13:56;;;;;;;7.40;3.03;;;;;;;;;;10493665;28;20043;-87
2021/04/03 23:18:57;;;;;;;6.32;2.83;;;;;;;;;;10498759;28;20071;-87
2021/04/03 23:23:58;;;;;;;5.55;2.83;;;;;;;;;;10501240;28;20036;-88
2021/04/03 23:28:59;;;;;;;4.35;2.63;;;;;;;;;;10493054;28;20044;-87
2021/04/03 23:34:00;;;;;;;4.93;2.65;;;;;;;;;;10491959;28;20033;-88
2021/04/03 23:39:02;;;;;;;5.55;2.90;;;;;;;;;;10491083;28;20139;-88
2021/04/03 23:44:03;;;;;;;6.38;3.00;;;;;;;;;;10490284;28;20060;-88
2021/04/03 23:49:04;;;;;;;8.15;3.10;;;;;;;;;;10489848;28;20047;-88
2021/04/03 23:54:06;;;;;;;7.22;3.50;;;;;;;;;;10489651;28;20032;-89
2021/04/03 23:59:07;;;;;;;6.10;3.17;;;;;;;;;;10489343;28;20033;-88
